Time;durP1;ratioP1;P1;durP2;ratioP2;P2;SDS_P1;SDS_P2;PMS_P1;PMS_P2;Temp;Humidity;BMP_temperature;BMP_pressure;BME280_temperature;BME280_humidity;BME280_pressure;Samples;Min_cycle;Max_cycle;Signal;HPM_P1;HPM_P2
2023/03/08 00:00:55;;;;;;;1.30;0.67;;;;;;;;;;4986103;28;20451;-64
2023/03/08 00:03:22;;;;;;;1.93;0.50;;;;;;;;;;4986206;28;20536;-64
2023/03/08 00:06:06;;;;;;;1.60;0.60;;;;;;;;;;4987615;28;20443;-64
2023/03/08 00:08:33;;;;;;;2.07;0.70;;;;;;;;;;4986189;28;20804;-64
2023/03/08 00:11:17;;;;;;;2.80;0.53;;;;;;;;;;4986498;28;20962;-64
2023/03/08 00:13:44;;;;;;;0.60;0.50;;;;;;;;;;4987669;28;20546;-64
2023/03/08 00:16:28;;;;;;;2.80;0.60;;;;;;;;;;4984766;28;20478;-64
2023/03/08 00:18:54;;;;;;;0.47;0.43;;;;;;;;;;4987789;28;20462;-64
2023/03/08 00:21:21;;;;;;;1.33;0.50;;;;;;;;;;4985492;28;20536;-64
2023/03/08 00:23:50;;;;;;;1.20;0.70;;;;;;;;;;4987441;28;20501;-64
2023/03/08 00:26:16;;;;;;;4.30;0.60;;;;;;;;;;4986097;28;20454;-64
2023/03/08 00:28:44;;;;;;;0.90;0.43;;;;;;;;;;4987637;28;20976;-63
2023/03/08 00:31:11;;;;;;;1.40;0.50;;;;;;;;;;4984600;28;20462;-64
2023/03/08 00:33:38;;;;;;;0.50;0.40;;;;;;;;;;4968698;28;21406;-64
2023/03/08 00:36:12;;;;;;;0.70;0.23;;;;;;;;;;4984747;28;20450;-64
2023/03/08 00:38:39;;;;;;;2.03;0.53;;;;;;;;;;4953626;28;21016;-63
2023/03/08 00:41:05;;;;;;;12.33;0.97;;;;;;;;;;4987408;28;20463;-64
2023/03/08 00:43:32;;;;;;;4.07;0.53;;;;;;;;;;4984469;28;20877;-64
2023/03/08 00:46:02;;;;;;;0.97;0.40;;;;;;;;;;4967777;28;20521;-64
2023/03/08 00:48:46;;;;;;;3.27;0.47;;;;;;;;;;4981926;28;20465;-63
2023/03/08 00:51:14;;;;;;;3.03;0.50;;;;;;;;;;4964979;28;20480;-64
2023/03/08 00:53:58;;;;;;;2.13;0.57;;;;;;;;;;4947830;28;20448;-64
2023/03/08 00:56:25;;;;;;;5.60;0.70;;;;;;;;;;4952702;28;21171;-64
2023/03/08 00:59:09;;;;;;;0.70;0.20;;;;;;;;;;4965841;28;22903;-64
2023/03/08 01:01:36;;;;;;;2.10;0.40;;;;;;;;;;4947039;28;21023;-64
2023/03/08 01:04:20;;;;;;;0.80;0.30;;;;;;;;;;4965687;28;21011;-64
2023/03/08 01:06:47;;;;;;;0.53;0.40;;;;;;;;;;4975451;28;20524;-64
2023/03/08 01:09:31;;;;;;;2.87;0.70;;;;;;;;;;4986751;28;21051;-64
2023/03/08 01:11:58;;;;;;;1.30;0.60;;;;;;;;;;4984529;28;20491;-64
2023/03/08 01:14:24;;;;;;;1.63;0.50;;;;;;;;;;4969140;28;20974;-64
2023/03/08 01:16:51;;;;;;;1.17;0.73;;;;;;;;;;4984647;28;20470;-64
2023/03/08 01:19:18;;;;;;;2.53;0.67;;;;;;;;;;4985188;28;20481;-64
2023/03/08 01:22:02;;;;;;;1.03;0.30;;;;;;;;;;4965385;28;20474;-64
2023/03/08 01:24:31;;;;;;;9.23;0.53;;;;;;;;;;4969214;28;20522;-64
2023/03/08 01:26:59;;;;;;;1.60;0.47;;;;;;;;;;4984358;28;20466;-64
2023/03/08 01:29:26;;;;;;;1.23;0.57;;;;;;;;;;4968790;28;20489;-64
2023/03/08 01:31:56;;;;;;;0.33;0.20;;;;;;;;;;4984736;28;20467;-64
2023/03/08 01:34:23;;;;;;;0.53;0.47;;;;;;;;;;4956463;28;20474;-64
2023/03/08 01:36:49;;;;;;;1.00;0.20;;;;;;;;;;4981518;28;20452;-64
2023/03/08 01:39:16;;;;;;;0.63;0.20;;;;;;;;;;4969058;28;20463;-64
2023/03/08 01:41:43;;;;;;;1.00;0.40;;;;;;;;;;4982048;28;20459;-64
2023/03/08 02:16:01;;;;;;;1.40;0.60;;;;;;;;;;4962822;28;21035;-64
2023/03/08 02:18:29;;;;;;;4.30;0.50;;;;;;;;;;4946975;28;20476;-64
2023/03/08 02:20:55;;;;;;;10.33;0.43;;;;;;;;;;4948511;28;20460;-64
2023/03/08 02:23:23;;;;;;;2.43;0.50;;;;;;;;;;4924408;28;20466;-64
2023/03/08 02:25:56;;;;;;;2.40;0.50;;;;;;;;;;4928302;28;20468;-65
2023/03/08 02:28:23;;;;;;;3.13;0.60;;;;;;;;;;4945436;28;21032;-64
2023/03/08 02:30:51;;;;;;;0.67;0.63;;;;;;;;;;4959442;28;20468;-64
2023/03/08 02:33:18;;;;;;;2.90;0.33;;;;;;;;;;4947252;28;20527;-64
2023/03/08 02:35:44;;;;;;;2.20;0.40;;;;;;;;;;4944974;28;20519;-63
2023/03/08 02:38:11;;;;;;;1.67;0.50;;;;;;;;;;4944116;28;20464;-64
2023/03/08 02:40:38;;;;;;;1.67;0.40;;;;;;;;;;4943692;28;20531;-64
2023/03/08 02:43:05;;;;;;;0.73;0.40;;;;;;;;;;4928502;28;20516;-64
2023/03/08 02:45:32;;;;;;;0.50;0.30;;;;;;;;;;4943356;28;20821;-64
2023/03/08 02:48:00;;;;;;;1.73;0.50;;;;;;;;;;4945028;28;20457;-64
2023/03/08 02:50:28;;;;;;;0.93;0.50;;;;;;;;;;4957481;28;20481;-64
2023/03/08 02:52:55;;;;;;;1.77;0.40;;;;;;;;;;4937676;28;20461;-64
2023/03/08 02:55:24;;;;;;;0.43;0.30;;;;;;;;;;4936333;28;20857;-64
2023/03/08 02:57:50;;;;;;;1.30;0.80;;;;;;;;;;4931236;28;20472;-64
2023/03/08 03:00:18;;;;;;;3.07;0.90;;;;;;;;;;4915211;28;20455;-64
2023/03/08 03:02:45;;;;;;;0.93;0.53;;;;;;;;;;4922415;28;20804;-64
2023/03/08 03:05:11;;;;;;;4.33;0.30;;;;;;;;;;4907430;28;20462;-64
2023/03/08 03:07:58;;;;;;;1.77;0.80;;;;;;;;;;4930827;28;20526;-64
2023/03/08 03:10:26;;;;;;;1.27;0.60;;;;;;;;;;4930488;28;20455;-64
2023/03/08 03:13:12;;;;;;;0.60;0.23;;;;;;;;;;4923158;28;20447;-64
2023/03/08 03:15:38;;;;;;;3.57;0.53;;;;;;;;;;4916787;28;20473;-64
2023/03/08 03:18:23;;;;;;;1.30;0.40;;;;;;;;;;4943507;28;20479;-64
2023/03/08 03:20:50;;;;;;;1.10;0.37;;;;;;;;;;4942750;28;20460;-64
2023/03/08 03:23:34;;;;;;;1.47;0.40;;;;;;;;;;4946004;28;20448;-64
2023/03/08 03:26:08;;;;;;;0.57;0.20;;;;;;;;;;4958899;28;20469;-64
2023/03/08 03:28:55;;;;;;;2.10;0.53;;;;;;;;;;4958545;28;20525;-65
2023/03/08 03:31:24;;;;;;;0.30;0.20;;;;;;;;;;4942648;28;20882;-65
2023/03/08 03:33:51;;;;;;;2.53;0.20;;;;;;;;;;4943317;28;20531;-65
2023/03/08 03:36:21;;;;;;;1.27;0.30;;;;;;;;;;4947342;28;20559;-65
2023/03/08 03:38:48;;;;;;;0.87;0.50;;;;;;;;;;4944838;28;20472;-65
2023/03/08 03:41:16;;;;;;;2.80;0.60;;;;;;;;;;4949060;28;20979;-65
2023/03/08 03:43:43;;;;;;;2.00;0.33;;;;;;;;;;4965517;28;20475;-64
2023/03/08 03:46:11;;;;;;;0.63;0.30;;;;;;;;;;4959746;28;20460;-65
2023/03/08 03:48:39;;;;;;;3.60;0.50;;;;;;;;;;4946533;28;20476;-64
2023/03/08 03:51:11;;;;;;;1.30;0.63;;;;;;;;;;4943805;28;20529;-65
2023/03/08 03:53:43;;;;;;;2.47;0.60;;;;;;;;;;4946915;28;20872;-64
2023/03/08 03:56:15;;;;;;;0.30;0.10;;;;;;;;;;4948263;28;20951;-64
2023/03/08 03:58:43;;;;;;;0.77;0.43;;;;;;;;;;4933509;28;20448;-66
2023/03/08 04:01:25;;;;;;;2.40;0.70;;;;;;;;;;4932080;28;21140;-64
2023/03/08 04:03:58;;;;;;;2.00;0.70;;;;;;;;;;4931680;28;20821;-66
2023/03/08 04:06:27;;;;;;;2.70;0.50;;;;;;;;;;4944955;28;20961;-65
2023/03/08 04:08:58;;;;;;;1.77;0.40;;;;;;;;;;4950088;28;20472;-64
2023/03/08 04:11:28;;;;;;;2.93;0.47;;;;;;;;;;4946194;28;20509;-66
2023/03/08 04:13:55;;;;;;;1.53;0.60;;;;;;;;;;4947723;28;20552;-66
2023/03/08 04:16:25;;;;;;;0.13;0.13;;;;;;;;;;4941003;28;20465;-64
2023/03/08 04:19:01;;;;;;;2.10;0.87;;;;;;;;;;4927314;28;20473;-64
2023/03/08 04:21:30;;;;;;;3.10;0.80;;;;;;;;;;4949732;28;20478;-65
2023/03/08 04:23:57;;;;;;;2.70;0.50;;;;;;;;;;4968677;28;20455;-65
2023/03/08 04:26:27;;;;;;;1.63;0.60;;;;;;;;;;4968286;28;20940;-65
2023/03/08 04:28:54;;;;;;;1.93;0.80;;;;;;;;;;4961099;28;20637;-64
2023/03/08 04:31:25;;;;;;;3.60;0.43;;;;;;;;;;4970366;28;20516;-64
2023/03/08 04:33:53;;;;;;;2.37;0.70;;;;;;;;;;4968956;28;20451;-64
2023/03/08 04:36:21;;;;;;;1.70;0.57;;;;;;;;;;4937096;28;20456;-65
2023/03/08 04:38:49;;;;;;;2.77;0.80;;;;;;;;;;4964368;28;20452;-64
2023/03/08 04:41:16;;;;;;;7.50;0.60;;;;;;;;;;4949754;28;20451;-65
2023/03/08 04:44:17;;;;;;;1.00;0.40;;;;;;;;;;4981042;28;20463;-65
2023/03/08 04:46:48;;;;;;;0.93;0.60;;;;;;;;;;4950786;28;20457;-65
2023/03/08 04:49:38;;;;;;;2.47;0.60;;;;;;;;;;4962186;28;20463;-64
2023/03/08 04:52:06;;;;;;;1.87;0.57;;;;;;;;;;4965342;28;20511;-65
2023/03/08 04:54:35;;;;;;;2.10;0.90;;;;;;;;;;4961972;28;20483;-65
2023/03/08 04:57:08;;;;;;;0.63;0.10;;;;;;;;;;4944668;28;20521;-65
2023/03/08 04:59:36;;;;;;;1.50;0.53;;;;;;;;;;4942013;28;20459;-65
2023/03/08 05:02:04;;;;;;;2.10;0.90;;;;;;;;;;4947673;28;20571;-64
2023/03/08 05:04:35;;;;;;;2.17;0.70;;;;;;;;;;4940455;28;20467;-64
2023/03/08 05:07:02;;;;;;;4.63;0.40;;;;;;;;;;4964310;28;20464;-65
2023/03/08 05:09:31;;;;;;;4.33;0.60;;;;;;;;;;4945129;28;27561;-63
2023/03/08 05:11:58;;;;;;;4.27;0.60;;;;;;;;;;4961607;28;20472;-65
2023/03/08 05:14:34;;;;;;;1.70;0.73;;;;;;;;;;4961738;28;20462;-64
2023/03/08 05:17:01;;;;;;;4.20;0.57;;;;;;;;;;4948653;28;20483;-65
2023/03/08 05:19:31;;;;;;;2.67;0.60;;;;;;;;;;4957177;28;20456;-65
2023/03/08 05:21:58;;;;;;;0.57;0.33;;;;;;;;;;4962682;28;20475;-64
2023/03/08 05:24:26;;;;;;;1.10;0.50;;;;;;;;;;4968509;28;21269;-65
2023/03/08 05:26:54;;;;;;;0.83;0.40;;;;;;;;;;4949221;28;20987;-65
2023/03/08 05:29:21;;;;;;;0.90;0.50;;;;;;;;;;4961877;28;20876;-64
2023/03/08 05:31:49;;;;;;;1.60;0.50;;;;;;;;;;4964366;28;20472;-64
2023/03/08 05:34:16;;;;;;;4.23;0.87;;;;;;;;;;4959657;28;20985;-64
2023/03/08 05:36:46;;;;;;;1.10;0.53;;;;;;;;;;4985024;28;20467;-64
2023/03/08 05:39:12;;;;;;;2.07;0.63;;;;;;;;;;4965755;28;20487;-64
2023/03/08 05:42:13;;;;;;;7.80;1.00;;;;;;;;;;4967274;28;20462;-64
2023/03/08 05:44:46;;;;;;;2.03;0.50;;;;;;;;;;4961856;28;20463;-64
2023/03/08 05:47:35;;;;;;;1.17;0.50;;;;;;;;;;4980061;28;20445;-64
2023/03/08 05:50:01;;;;;;;4.00;0.70;;;;;;;;;;4967093;28;20487;-64
2023/03/08 05:52:33;;;;;;;2.40;0.70;;;;;;;;;;4966569;28;20524;-64
2023/03/08 05:55:01;;;;;;;2.70;0.83;;;;;;;;;;4973475;28;20513;-64
2023/03/08 05:57:28;;;;;;;4.30;0.93;;;;;;;;;;4973355;28;20728;-63
2023/03/08 05:59:55;;;;;;;4.33;1.40;;;;;;;;;;4977570;28;20464;-64
2023/03/08 06:02:22;;;;;;;2.47;0.90;;;;;;;;;;4975600;28;20554;-65
2023/03/08 06:04:54;;;;;;;2.07;0.60;;;;;;;;;;4961013;28;20459;-62
2023/03/08 06:07:22;;;;;;;0.53;0.50;;;;;;;;;;4959317;28;21386;-64
2023/03/08 06:10:00;;;;;;;2.90;1.40;;;;;;;;;;4957724;28;21516;-63
2023/03/08 06:12:27;;;;;;;1.33;0.53;;;;;;;;;;4964539;28;20471;-61
2023/03/08 06:14:57;;;;;;;1.87;0.50;;;;;;;;;;4942074;28;20467;-64
2023/03/08 06:17:27;;;;;;;1.83;0.40;;;;;;;;;;4930123;28;20910;-64
2023/03/08 06:19:55;;;;;;;2.00;0.70;;;;;;;;;;4960585;28;20452;-62
2023/03/08 06:22:22;;;;;;;1.80;0.63;;;;;;;;;;4952325;28;20475;-63
2023/03/08 06:24:49;;;;;;;3.17;0.97;;;;;;;;;;4959786;28;20978;-63
2023/03/08 06:27:35;;;;;;;2.47;1.00;;;;;;;;;;4973273;28;20511;-63
2023/03/08 06:30:07;;;;;;;2.40;0.93;;;;;;;;;;4950221;28;21026;-63
2023/03/08 06:32:36;;;;;;;1.43;0.83;;;;;;;;;;4927942;28;20486;-64
2023/03/08 06:35:04;;;;;;;4.23;0.70;;;;;;;;;;4967040;28;20455;-61
2023/03/08 06:37:34;;;;;;;5.57;0.87;;;;;;;;;;4974816;28;20524;-64
2023/03/08 06:40:02;;;;;;;1.00;0.37;;;;;;;;;;4982186;28;20494;-63
2023/03/08 06:42:29;;;;;;;2.73;1.13;;;;;;;;;;4981214;28;20458;-64
2023/03/08 06:45:09;;;;;;;0.73;0.43;;;;;;;;;;4982039;28;20858;-64
2023/03/08 06:47:53;;;;;;;2.30;0.70;;;;;;;;;;4981078;28;20450;-64
2023/03/08 06:50:20;;;;;;;2.37;0.63;;;;;;;;;;4942351;28;20467;-64
2023/03/08 06:53:04;;;;;;;3.10;1.00;;;;;;;;;;4959276;28;20464;-64
2023/03/08 06:55:43;;;;;;;1.73;1.00;;;;;;;;;;4942112;28;20539;-64
2023/03/08 06:58:29;;;;;;;1.23;0.60;;;;;;;;;;4955890;28;20530;-64
2023/03/08 07:00:58;;;;;;;2.10;0.73;;;;;;;;;;4979049;28;20958;-66
2023/03/08 07:03:25;;;;;;;1.40;0.90;;;;;;;;;;4962434;28;20517;-64
2023/03/08 07:05:52;;;;;;;1.60;0.80;;;;;;;;;;4947572;28;20475;-64
2023/03/08 07:08:18;;;;;;;1.30;0.50;;;;;;;;;;4962432;28;20460;-64
2023/03/08 07:11:03;;;;;;;1.23;0.70;;;;;;;;;;4958515;28;20510;-67
2023/03/08 07:13:29;;;;;;;0.70;0.40;;;;;;;;;;4931142;28;25097;-64
2023/03/08 07:16:18;;;;;;;2.20;0.83;;;;;;;;;;4958538;28;20474;-64
2023/03/08 07:18:55;;;;;;;2.47;1.27;;;;;;;;;;4956172;28;21050;-64
2023/03/08 07:22:02;;;;;;;2.57;0.93;;;;;;;;;;5497333;23;20459;-67
2023/03/08 07:25:20;;;;;;;3.60;1.10;;;;;;;;;;4951806;28;20878;-65
2023/03/08 07:28:25;;;;;;;2.20;1.60;;;;;;;;;;4950990;28;20583;-65
2023/03/08 07:31:59;;;;;;;2.57;0.60;;;;;;;;;;4950923;28;20938;-66
2023/03/08 07:35:12;;;;;;;1.03;0.50;;;;;;;;;;4950497;28;20483;-65
2023/03/08 07:38:29;;;;;;;3.27;0.90;;;;;;;;;;4942089;28;20807;-64
2023/03/08 07:41:42;;;;;;;3.03;1.17;;;;;;;;;;4911739;28;20524;-66
2023/03/08 07:45:02;;;;;;;2.87;0.87;;;;;;;;;;4851214;29;20469;-65
2023/03/08 07:48:15;;;;;;;8.80;3.67;;;;;;;;;;4918617;28;20473;-65
2023/03/08 07:51:11;;;;;;;;;;;;;;;;;;;;;
2023/03/08 07:54:06;;;;;;;3.53;0.73;;;;;;;;;;4908487;28;20531;-65
2023/03/08 07:56:46;;;;;;;4.00;1.83;;;;;;;;;;4910306;29;20450;-65
2023/03/08 07:59:35;;;;;;;4.37;1.73;;;;;;;;;;4899650;29;20540;-65
2023/03/08 08:10:22;;;;;;;;;;;;;;;;;;;;;
2023/03/08 08:20:28;;;;;;;12.13;4.60;;;;;;;;;;4896625;28;20498;-65
2023/03/08 08:23:56;;;;;;;9.90;3.47;;;;;;;;;;4920186;28;21201;-64
2023/03/08 08:26:54;;;;;;;20.67;7.57;;;;;;;;;;4878388;29;20462;-67
2023/03/08 08:29:45;;;;;;;1.37;0.57;;;;;;;;;;4884053;29;20504;-66
2023/03/08 08:32:38;;;;;;;2.17;0.60;;;;;;;;;;4843430;29;20457;-65
2023/03/08 08:35:32;;;;;;;7.80;3.53;;;;;;;;;;4772679;29;20473;-63
2023/03/08 08:38:09;;;;;;;2.23;0.50;;;;;;;;;;4774632;29;20468;-64
2023/03/08 08:40:52;;;;;;;2.57;1.40;;;;;;;;;;4781031;29;20468;-64
2023/03/08 08:43:19;;;;;;;3.13;1.13;;;;;;;;;;4774444;29;20464;-64
2023/03/08 08:46:04;;;;;;;1.90;0.57;;;;;;;;;;4809622;29;20555;-66
2023/03/08 08:48:35;;;;;;;6.50;1.70;;;;;;;;;;4825330;29;20320;-66
2023/03/08 08:51:01;;;;;;;0.50;0.20;;;;;;;;;;4820317;29;20469;-65
2023/03/08 08:53:28;;;;;;;18.10;9.23;;;;;;;;;;4816558;29;20496;-65
2023/03/08 08:55:55;;;;;;;3.20;1.27;;;;;;;;;;4828311;29;20540;-64
2023/03/08 08:58:22;;;;;;;14.53;5.50;;;;;;;;;;4829157;29;20682;-63
2023/03/08 09:00:49;;;;;;;1.97;0.70;;;;;;;;;;4828429;29;20697;-64
2023/03/08 09:03:16;;;;;;;2.53;1.03;;;;;;;;;;4846789;29;34001;-64
2023/03/08 09:05:43;;;;;;;2.77;1.13;;;;;;;;;;4883781;29;20251;-64
2023/03/08 09:08:10;;;;;;;7.00;3.40;;;;;;;;;;4885839;29;20974;-64
2023/03/08 09:10:37;;;;;;;5.27;0.40;;;;;;;;;;4883878;29;21003;-63
2023/03/08 09:13:21;;;;;;;7.50;3.13;;;;;;;;;;4949428;28;20448;-62
2023/03/08 09:15:48;;;;;;;1.27;0.60;;;;;;;;;;4958913;28;20459;-65
2023/03/08 09:18:15;;;;;;;1.43;0.80;;;;;;;;;;4947330;28;20816;-63
2023/03/08 09:20:42;;;;;;;2.13;0.73;;;;;;;;;;4958305;28;20475;-64
2023/03/08 09:23:09;;;;;;;2.53;0.60;;;;;;;;;;4964807;28;31536;-64
2023/03/08 09:25:38;;;;;;;17.60;7.53;;;;;;;;;;4969841;28;20552;-65
2023/03/08 09:28:05;;;;;;;13.87;5.73;;;;;;;;;;4971163;28;20614;-62
2023/03/08 09:30:32;;;;;;;15.10;6.30;;;;;;;;;;4957412;28;20233;-62
2023/03/08 09:32:58;;;;;;;51.67;20.73;;;;;;;;;;4976807;28;20980;-63
2023/03/08 09:35:25;;;;;;;1.43;0.47;;;;;;;;;;4968510;28;20572;-63
2023/03/08 09:37:52;;;;;;;3.27;0.90;;;;;;;;;;4977145;28;20822;-63
2023/03/08 09:40:25;;;;;;;113.60;43.73;;;;;;;;;;4972666;28;20230;-62
2023/03/08 09:42:52;;;;;;;4.43;1.50;;;;;;;;;;4968714;28;20509;-64
2023/03/08 09:45:25;;;;;;;2.20;0.57;;;;;;;;;;4978732;28;20263;-64
2023/03/08 09:48:14;;;;;;;9.43;3.87;;;;;;;;;;4972150;28;20455;-64
2023/03/08 09:50:41;;;;;;;15.03;5.20;;;;;;;;;;4972850;28;20462;-65
2023/03/08 09:53:33;;;;;;;4.50;1.10;;;;;;;;;;4963942;28;20997;-65
2023/03/08 09:56:03;;;;;;;10.47;2.80;;;;;;;;;;4969915;28;20777;-65
2023/03/08 09:58:34;;;;;;;18.77;6.83;;;;;;;;;;4953474;28;20458;-64
2023/03/08 10:01:19;;;;;;;2.73;1.33;;;;;;;;;;4962284;28;20875;-64
2023/03/08 10:03:55;;;;;;;3.27;1.47;;;;;;;;;;4969031;28;20953;-64
2023/03/08 10:06:29;;;;;;;5.63;3.80;;;;;;;;;;4969866;28;20472;-64
2023/03/08 10:08:59;;;;;;;0.90;0.40;;;;;;;;;;4961510;28;20467;-65
2023/03/08 10:11:26;;;;;;;2.87;0.90;;;;;;;;;;4961227;28;20549;-65
2023/03/08 10:13:54;;;;;;;3.97;2.17;;;;;;;;;;4961488;28;20371;-64
2023/03/08 10:16:41;;;;;;;3.50;0.80;;;;;;;;;;4948389;28;20463;-63
2023/03/08 10:19:19;;;;;;;1.93;1.50;;;;;;;;;;4981155;28;20237;-63
2023/03/08 10:21:46;;;;;;;4.47;0.57;;;;;;;;;;4978596;28;20686;-64
2023/03/08 10:24:15;;;;;;;0.47;0.23;;;;;;;;;;4983343;28;24983;-63
2023/03/08 10:26:42;;;;;;;3.80;0.63;;;;;;;;;;4995777;28;20242;-64
2023/03/08 10:29:12;;;;;;;1.37;0.50;;;;;;;;;;4982743;28;31545;-63
2023/03/08 10:31:40;;;;;;;2.27;0.80;;;;;;;;;;4993950;28;20477;-65
2023/03/08 10:34:10;;;;;;;1.63;0.60;;;;;;;;;;4971395;28;20473;-63
2023/03/08 10:36:55;;;;;;;1.97;0.57;;;;;;;;;;4982639;28;20549;-64
2023/03/08 10:39:22;;;;;;;0.67;0.30;;;;;;;;;;4984443;28;20692;-64
2023/03/08 10:41:51;;;;;;;3.30;0.63;;;;;;;;;;4972156;28;20270;-64
2023/03/08 10:44:30;;;;;;;2.90;1.07;;;;;;;;;;4980259;28;20261;-64
2023/03/08 10:46:57;;;;;;;2.57;0.60;;;;;;;;;;4992656;28;20500;-65
2023/03/08 10:49:23;;;;;;;0.93;0.47;;;;;;;;;;4982559;28;20457;-64
2023/03/08 10:51:57;;;;;;;2.03;0.53;;;;;;;;;;4999699;28;20609;-65
2023/03/08 10:54:24;;;;;;;1.57;0.67;;;;;;;;;;4988738;28;20541;-64
2023/03/08 10:56:55;;;;;;;1.90;0.60;;;;;;;;;;4999114;28;20262;-63
2023/03/08 10:59:26;;;;;;;0.27;0.20;;;;;;;;;;4999053;28;20904;-64
2023/03/08 11:01:55;;;;;;;1.73;0.60;;;;;;;;;;4997545;28;20473;-64
2023/03/08 11:04:25;;;;;;;4.30;1.60;;;;;;;;;;4994329;28;20465;-65
2023/03/08 11:06:52;;;;;;;3.03;1.20;;;;;;;;;;5005398;28;20462;-64
2023/03/08 11:09:25;;;;;;;3.87;1.57;;;;;;;;;;4996845;28;20451;-65
2023/03/08 11:11:52;;;;;;;1.73;0.97;;;;;;;;;;4985572;28;20482;-65
2023/03/08 11:14:19;;;;;;;2.23;0.80;;;;;;;;;;4996479;28;20243;-66
2023/03/08 11:17:24;;;;;;;4.70;2.73;;;;;;;;;;4990163;28;20466;-65
2023/03/08 11:19:59;;;;;;;3.07;1.27;;;;;;;;;;4883659;28;20458;-65
2023/03/08 11:22:44;;;;;;;2.30;0.40;;;;;;;;;;4917930;28;20489;-64
2023/03/08 11:25:31;;;;;;;1.43;0.50;;;;;;;;;;4964622;28;23812;-64
2023/03/08 11:27:58;;;;;;;1.33;0.73;;;;;;;;;;4982590;28;20467;-64
2023/03/08 11:30:28;;;;;;;0.30;0.30;;;;;;;;;;4990610;28;20542;-64
2023/03/08 11:33:04;;;;;;;2.87;0.90;;;;;;;;;;5019458;28;20858;-64
2023/03/08 11:35:34;;;;;;;2.90;0.70;;;;;;;;;;5019921;28;20873;-64
2023/03/08 11:38:07;;;;;;;0.80;0.40;;;;;;;;;;5020660;28;20814;-64
2023/03/08 11:40:53;;;;;;;0.97;0.40;;;;;;;;;;5020282;28;20222;-64
2023/03/08 11:43:32;;;;;;;2.67;1.13;;;;;;;;;;5012318;28;23830;-64
2023/03/08 11:46:08;;;;;;;5.97;1.03;;;;;;;;;;5003600;28;20230;-64
2023/03/08 11:48:53;;;;;;;1.50;0.60;;;;;;;;;;4972652;28;20450;-64
2023/03/08 11:51:20;;;;;;;3.50;1.13;;;;;;;;;;5011284;28;20416;-64
2023/03/08 11:53:49;;;;;;;3.87;1.70;;;;;;;;;;5010873;28;20223;-64
2023/03/08 11:56:25;;;;;;;3.87;0.90;;;;;;;;;;5002926;28;20222;-64
2023/03/08 11:59:11;;;;;;;2.17;0.70;;;;;;;;;;5002964;28;20219;-65
2023/03/08 12:01:40;;;;;;;4.23;0.80;;;;;;;;;;4979834;28;20611;-65
2023/03/08 12:04:11;;;;;;;1.93;0.53;;;;;;;;;;5005290;28;20304;-65
2023/03/08 12:06:39;;;;;;;2.07;0.60;;;;;;;;;;5004415;28;20223;-64
2023/03/08 12:09:06;;;;;;;1.80;0.50;;;;;;;;;;5005090;28;20318;-64
2023/03/08 12:11:37;;;;;;;1.60;0.60;;;;;;;;;;5007641;28;20225;-64
2023/03/08 12:14:16;;;;;;;1.90;0.90;;;;;;;;;;5004136;28;20465;-65
2023/03/08 12:17:05;;;;;;;1.50;0.70;;;;;;;;;;4991528;28;20231;-65
2023/03/08 12:19:42;;;;;;;4.13;1.07;;;;;;;;;;4983471;28;20792;-65
2023/03/08 12:22:15;;;;;;;1.13;0.50;;;;;;;;;;4992009;28;20237;-63
2023/03/08 12:24:45;;;;;;;2.20;0.30;;;;;;;;;;5002895;28;20278;-65
2023/03/08 12:27:18;;;;;;;2.97;0.53;;;;;;;;;;5003055;28;20223;-63
2023/03/08 12:29:44;;;;;;;3.40;0.87;;;;;;;;;;5002803;28;20310;-66
2023/03/08 12:32:12;;;;;;;1.27;0.50;;;;;;;;;;4992996;28;20461;-66
2023/03/08 12:34:40;;;;;;;2.07;0.70;;;;;;;;;;4983775;28;20223;-66
2023/03/08 12:37:36;;;;;;;1.27;0.40;;;;;;;;;;5001233;28;20227;-64
2023/03/08 12:40:08;;;;;;;2.47;0.70;;;;;;;;;;4995887;28;20245;-66
2023/03/08 12:42:38;;;;;;;3.63;1.70;;;;;;;;;;4995815;28;20698;-66
2023/03/08 12:45:25;;;;;;;2.93;1.20;;;;;;;;;;4999031;28;20239;-64
2023/03/08 12:48:14;;;;;;;1.83;0.60;;;;;;;;;;4994475;28;20472;-65
2023/03/08 12:51:01;;;;;;;2.17;0.90;;;;;;;;;;4995579;28;20599;-64
2023/03/08 12:53:27;;;;;;;1.20;0.70;;;;;;;;;;4977157;28;20228;-64
2023/03/08 12:56:30;;;;;;;2.87;1.13;;;;;;;;;;4971712;28;21020;-65
2023/03/08 12:58:57;;;;;;;6.07;1.37;;;;;;;;;;4972589;28;20629;-65
2023/03/08 13:01:43;;;;;;;2.13;0.70;;;;;;;;;;5016610;28;20457;-64
2023/03/08 13:04:29;;;;;;;3.33;1.00;;;;;;;;;;4974317;28;20227;-65
2023/03/08 13:07:19;;;;;;;2.80;1.20;;;;;;;;;;4999715;28;20462;-65
2023/03/08 13:09:50;;;;;;;3.07;1.33;;;;;;;;;;5001250;28;20472;-63
2023/03/08 13:13:01;;;;;;;5.60;1.20;;;;;;;;;;4998045;28;20446;-63
2023/03/08 13:15:28;;;;;;;3.50;1.90;;;;;;;;;;4980608;28;20462;-64
2023/03/08 13:17:59;;;;;;;2.57;1.23;;;;;;;;;;5003529;28;20450;-63
2023/03/08 13:20:38;;;;;;;4.07;1.43;;;;;;;;;;4989134;28;20233;-64
2023/03/08 13:23:13;;;;;;;3.70;1.03;;;;;;;;;;5003267;28;20450;-64
2023/03/08 13:26:02;;;;;;;2.33;0.97;;;;;;;;;;4995546;28;20469;-63
2023/03/08 13:28:33;;;;;;;3.70;1.10;;;;;;;;;;4996805;28;20531;-64
2023/03/08 13:31:14;;;;;;;4.47;1.10;;;;;;;;;;4993560;28;20226;-64
2023/03/08 13:33:58;;;;;;;1.83;0.60;;;;;;;;;;4966503;28;21263;-63
2023/03/08 13:36:29;;;;;;;0.43;0.10;;;;;;;;;;4986122;28;21150;-63
2023/03/08 13:39:06;;;;;;;3.07;0.60;;;;;;;;;;4992923;28;20543;-64
2023/03/08 13:41:34;;;;;;;2.10;0.70;;;;;;;;;;5000050;28;20458;-62
2023/03/08 13:44:24;;;;;;;2.83;0.77;;;;;;;;;;5003243;28;20469;-62
2023/03/08 13:46:53;;;;;;;3.83;0.90;;;;;;;;;;5000730;28;20454;-63
2023/03/08 13:49:26;;;;;;;2.43;0.83;;;;;;;;;;5000080;28;20469;-64
2023/03/08 13:51:54;;;;;;;2.40;0.83;;;;;;;;;;4997132;28;20826;-64
2023/03/08 13:54:31;;;;;;;2.83;0.93;;;;;;;;;;4999880;28;20243;-63
2023/03/08 13:56:59;;;;;;;4.20;1.40;;;;;;;;;;4993295;28;20638;-64
2023/03/08 13:59:26;;;;;;;2.90;1.00;;;;;;;;;;5000311;28;20605;-64
2023/03/08 14:01:53;;;;;;;4.73;0.90;;;;;;;;;;5002597;28;20499;-64
2023/03/08 14:04:21;;;;;;;1.87;0.80;;;;;;;;;;5001331;28;20513;-64
2023/03/08 14:06:52;;;;;;;2.60;0.83;;;;;;;;;;4996089;28;21145;-64
2023/03/08 14:09:19;;;;;;;1.70;1.00;;;;;;;;;;4987767;28;20446;-64
2023/03/08 14:11:51;;;;;;;3.83;1.20;;;;;;;;;;5001337;28;20559;-64
2023/03/08 14:14:37;;;;;;;4.17;1.00;;;;;;;;;;4997441;28;20872;-64
2023/03/08 14:17:03;;;;;;;2.83;1.10;;;;;;;;;;4983336;28;20532;-65
2023/03/08 14:19:31;;;;;;;3.27;1.30;;;;;;;;;;4998612;28;20466;-65
2023/03/08 14:22:09;;;;;;;3.13;1.87;;;;;;;;;;4997923;28;20466;-63
2023/03/08 14:24:36;;;;;;;4.57;3.10;;;;;;;;;;4975628;28;20472;-64
2023/03/08 14:27:03;;;;;;;3.20;1.50;;;;;;;;;;4999989;28;20470;-64
2023/03/08 14:29:30;;;;;;;3.70;1.20;;;;;;;;;;5000347;28;20469;-64
2023/03/08 14:32:09;;;;;;;3.03;1.10;;;;;;;;;;5001639;28;20311;-64
2023/03/08 14:34:39;;;;;;;3.53;1.10;;;;;;;;;;5001243;28;20464;-64
2023/03/08 14:37:28;;;;;;;2.80;1.10;;;;;;;;;;4979453;28;20478;-64
2023/03/08 14:39:55;;;;;;;2.70;0.93;;;;;;;;;;4992941;28;20533;-64
2023/03/08 14:42:40;;;;;;;2.67;0.90;;;;;;;;;;4983301;28;20464;-64
2023/03/08 14:45:16;;;;;;;4.90;1.73;;;;;;;;;;4988234;28;20232;-64
2023/03/08 14:48:01;;;;;;;4.57;1.00;;;;;;;;;;4994697;28;20247;-64
2023/03/08 14:50:29;;;;;;;3.80;1.30;;;;;;;;;;4982119;28;20235;-64
2023/03/08 14:52:56;;;;;;;6.13;2.90;;;;;;;;;;4984469;28;20973;-64
2023/03/08 14:55:23;;;;;;;6.63;1.63;;;;;;;;;;4996577;28;20484;-64
2023/03/08 14:57:51;;;;;;;3.47;1.20;;;;;;;;;;5000560;28;20472;-64
2023/03/08 15:00:18;;;;;;;2.27;0.93;;;;;;;;;;4994514;28;20466;-65
2023/03/08 15:02:45;;;;;;;6.60;4.13;;;;;;;;;;4997789;28;20673;-64
2023/03/08 15:05:12;;;;;;;2.80;1.30;;;;;;;;;;4990711;28;20459;-64
2023/03/08 15:07:48;;;;;;;2.40;1.20;;;;;;;;;;4998159;28;21016;-64
2023/03/08 15:10:26;;;;;;;2.63;1.00;;;;;;;;;;4976324;28;21791;-64
2023/03/08 15:12:53;;;;;;;7.27;2.20;;;;;;;;;;4986042;28;20494;-64
2023/03/08 15:15:20;;;;;;;6.87;2.00;;;;;;;;;;4987299;28;20473;-65
2023/03/08 15:17:46;;;;;;;7.10;2.07;;;;;;;;;;4997702;28;20780;-65
2023/03/08 15:20:31;;;;;;;6.27;1.90;;;;;;;;;;4988351;28;20454;-64
2023/03/08 15:23:01;;;;;;;8.40;2.63;;;;;;;;;;4987763;28;20590;-64
2023/03/08 15:25:29;;;;;;;10.17;2.37;;;;;;;;;;4996681;28;20533;-63
2023/03/08 15:27:56;;;;;;;6.43;2.10;;;;;;;;;;4991738;28;20461;-63
2023/03/08 15:30:24;;;;;;;4.80;1.80;;;;;;;;;;4999433;28;20489;-64
2023/03/08 15:32:50;;;;;;;7.77;2.57;;;;;;;;;;4998334;28;20458;-65
2023/03/08 15:35:17;;;;;;;4.30;2.03;;;;;;;;;;4996861;28;20271;-63
2023/03/08 15:37:44;;;;;;;4.60;1.80;;;;;;;;;;4971527;28;20472;-64
2023/03/08 15:40:29;;;;;;;6.27;1.90;;;;;;;;;;4979333;28;20466;-64
2023/03/08 15:42:56;;;;;;;6.43;1.43;;;;;;;;;;4991238;28;20522;-63
2023/03/08 15:45:25;;;;;;;6.83;1.77;;;;;;;;;;4991299;28;20830;-63
2023/03/08 15:47:58;;;;;;;4.43;1.63;;;;;;;;;;4985550;28;20476;-65
2023/03/08 15:50:25;;;;;;;8.87;2.40;;;;;;;;;;4986307;28;21041;-64
2023/03/08 15:52:53;;;;;;;9.17;3.53;;;;;;;;;;4998277;28;20235;-66
2023/03/08 15:55:20;;;;;;;12.23;4.30;;;;;;;;;;4996846;28;20274;-66
2023/03/08 15:57:48;;;;;;;8.60;3.80;;;;;;;;;;4983245;28;20470;-65
2023/03/08 16:00:18;;;;;;;7.10;3.77;;;;;;;;;;4975411;28;20521;-64
2023/03/08 16:02:44;;;;;;;8.63;3.60;;;;;;;;;;4985289;28;21164;-65
2023/03/08 16:05:11;;;;;;;8.90;3.80;;;;;;;;;;4997654;28;20550;-65
2023/03/08 16:07:38;;;;;;;6.80;2.37;;;;;;;;;;4996430;28;20492;-64
2023/03/08 16:10:06;;;;;;;6.43;2.23;;;;;;;;;;5004880;28;20417;-65